Latest Weather Observations for Cunderdin Airport

IDW60801

Issued at 6:02 pm WST Wednesday 2 September 2015 (issued every 30 minutes, with the page automatically refreshed every 10 minutes)

About weather observations | Map of weather stations | Latest weather observations for WA | Other Formats
Station Details ID: 010286 Name: CUNDERDIN AIRFIELD Lat: -31.62 Lon: 117.22 Height: 216.7 m
Data from the previous 72 hours. | See also: Recent months at Cunderdin Airport
Date/Time
WST
Temp
°C
App
Temp
°C
Dew
Point
Rel
Hum
%
Delta-T
°C
Wind Press
QNH
hPa
Press
MSL
hPa
Rain
since 9 am
mm
Dir
 
Spd
km/h
Gust
km/h
Spd
kts
Gust
kts
02/06:00pm 11.5 8.8 5.4 66 2.8 ESE 9 13 5 7 1025.4 1025.4 0.0
02/05:30pm 11.8 8.6 5.2 64 3.1 ESE 11 15 6 8 1025.4 1025.4 0.0
02/05:00pm 12.0 8.4 5.2 63 3.2 ESE 13 20 7 11 1025.1 1025.1 0.0
02/04:30pm 12.1 7.7 5.0 62 3.3 E 17 26 9 14 1024.9 1024.9 0.0
02/04:00pm 12.3 7.9 4.5 59 3.6 E 17 24 9 13 1024.9 1024.9 0.0
02/03:30pm 12.5 8.2 5.2 61 3.4 E 17 22 9 12 1024.9 1024.9 0.0
02/03:00pm 12.4 8.0 4.9 60 3.5 ESE 17 24 9 13 1025.0 1025.0 0.0
02/02:30pm 12.2 7.7 4.4 59 3.6 E 17 28 9 15 1025.0 1025.0 0.0
02/02:00pm 12.2 7.1 3.9 57 3.7 E 20 28 11 15 1025.1 1025.1 0.0
02/01:30pm 12.7 7.9 4.4 57 3.8 E 19 26 10 14 1025.2 1025.2 0.0
02/01:00pm 12.4 7.0 4.4 58 3.7 E 22 30 12 16 1025.5 1025.5 0.0
02/12:30pm 12.2 7.1 3.9 57 3.8 E 20 28 11 15 1025.9 1025.9 0.0
02/12:00pm 13.8 8.5 4.9 55 4.2 ESE 22 33 12 18 1026.0 1026.0 0.0
02/11:30am 11.3 6.1 3.3 58 3.6 ESE 20 32 11 17 1026.7 1026.7 0.0
02/11:00am 11.2 6.0 3.7 60 3.3 ESE 20 28 11 15 1027.0 1027.0 0.0
02/10:30am 11.1 6.0 4.1 62 3.2 ESE 20 28 11 15 1027.4 1027.4 0.0
02/10:00am 11.5 7.2 5.4 66 2.8 E 17 30 9 16 1027.6 1027.6 0.0
02/09:30am 10.5 7.1 5.9 73 2.2 ESE 13 19 7 10 1027.9 1027.9 0.0
02/09:00am 8.8 6.4 5.4 79 1.5 SE 7 13 4 7 1028.0 1028.0 0.0
02/08:30am 6.0 4.4 4.3 89 0.7 SSW 2 7 1 4 1028.1 1028.1 0.0
02/08:00am 4.2 2.8 3.3 94 0.4 CALM 0 6 0 3 1027.9 1027.9 0.0
02/07:30am 2.0 0.2 1.3 95 0.3 CALM 0 0 0 0 1027.5 1027.5 0.0
02/07:00am 0.5 -1.5 -0.2 95 0.3 CALM 0 0 0 0 1027.2 1027.2 0.0
02/06:30am -0.3 -2.4 -1.0 95 0.2 CALM 0 0 0 0 1026.9 1026.9 0.0
02/06:00am -0.2 -2.7 -0.9 95 0.2 NNE 2 9 1 5 1026.6 1026.6 0.0
02/05:30am -0.2 -2.3 -1.0 94 0.3 CALM 0 0 0 0 1026.3 1026.3 0.0
02/05:00am 0.3 -1.7 -0.4 95 0.3 CALM 0 0 0 0 1026.0 1026.0 0.0
02/04:30am 0.5 -1.5 -0.4 94 0.3 CALM 0 6 0 3 1026.0 1026.0 0.0
02/04:00am 0.5 -2.7 -0.4 94 0.3 NNE 6 7 3 4 1025.7 1025.7 0.0
02/03:30am 1.4 -1.8 0.5 94 0.3 NE 7 9 4 5 1025.5 1025.5 0.0
02/03:00am 2.5 -0.6 1.5 93 0.4 E 7 9 4 5 1025.7 1025.7 0.0
02/02:30am 2.8 0.0 1.8 93 0.4 ESE 6 7 3 4 1025.7 1025.7 0.0
02/02:00am 3.1 1.0 1.8 91 0.5 SE 2 6 1 3 1025.9 1025.9 0.0
02/01:30am 3.7 0.4 2.2 90 0.6 ESE 9 15 5 8 1025.8 1025.8 0.0
02/01:00am 4.4 0.8 3.1 91 0.5 SE 11 15 6 8 1025.7 1025.7 0.0
02/12:30am 4.7 1.1 3.2 90 0.6 SE 11 15 6 8 1025.9 1025.9 0.0
02/12:00am 5.4 1.9 3.6 88 0.8 SE 11 15 6 8 1026.0 1026.0 0.0
 
Date/Time
WST
Temp
°C
App
Temp
°C
Dew
Point
Rel
Hum
%
Delta-T
°C
Wind Press
QNH
hPa
Press
MSL
hPa
Rain
since 9 am
mm
Dir
 
Spd
km/h
Gust
km/h
Spd
kts
Gust
kts
01/11:30pm 5.8 2.4 3.8 87 0.9 SE 11 15 6 8 1026.1 1026.1 0.0
01/11:00pm 6.2 2.8 3.9 85 1.0 SE 11 13 6 7 1026.3 1026.3 0.0
01/10:30pm 7.1 3.3 3.9 80 1.4 SE 13 15 7 8 1026.3 1026.3 0.0
01/10:00pm 8.1 4.0 4.3 77 1.7 SE 15 20 8 11 1026.3 1026.3 0.0
01/09:30pm 8.6 4.2 4.6 76 1.8 SE 17 22 9 12 1026.2 1026.2 0.0
01/09:00pm 8.7 5.0 4.5 75 1.9 SSE 13 17 7 9 1025.9 1025.9 0.0
01/08:30pm 9.0 5.3 4.4 73 2.1 SSE 13 19 7 10 1025.7 1025.7 0.0
01/08:00pm 8.7 5.4 4.3 74 1.9 SSE 11 13 6 7 1025.2 1025.2 0.0
01/07:30pm 8.5 5.1 3.8 72 2.1 SE 11 15 6 8 1024.7 1024.6 0.0
01/07:00pm 8.7 4.8 3.5 70 2.3 SSE 13 15 7 8 1024.2 1024.1 0.0
01/06:30pm 7.6 4.1 3.6 76 1.7 S 11 15 6 8 1023.8 1023.8 0.0
01/06:00pm 8.4 4.5 3.5 71 2.1 S 13 17 7 9 1023.5 1023.5 0.0
01/05:30pm 9.7 5.4 3.0 63 2.9 S 15 19 8 10 1023.2 1023.2 0.0
01/05:00pm 11.1 6.4 2.9 57 3.6 S 17 20 9 11 1022.9 1022.9 0.0
01/04:30pm 12.6 7.2 2.2 49 4.6 SSW 20 28 11 15 1022.8 1022.8 0.0
01/04:00pm 13.0 7.3 3.1 51 4.4 S 22 28 12 15 1022.7 1022.7 0.0
01/03:30pm 12.9 6.9 3.3 52 4.3 S 24 32 13 17 1022.5 1022.5 0.0
01/03:00pm 12.8 6.7 2.6 50 4.5 SSW 24 32 13 17 1022.4 1022.4 0.0
01/02:30pm 13.1 7.3 2.4 48 4.7 SSW 22 32 12 17 1022.3 1022.3 0.0
01/02:00pm 13.1 7.0 2.6 49 4.6 SSW 24 32 13 17 1022.2 1022.2 0.0
01/01:30pm 12.2 6.1 2.6 52 4.2 S 24 39 13 21 1022.1 1022.1 0.0
01/01:00pm 12.1 6.1 3.3 55 3.9 SSW 24 33 13 18 1022.2 1022.2 0.0
01/12:30pm 11.6 5.1 2.4 53 4.0 S 26 33 14 18 1022.6 1022.6 0.0
01/12:00pm 11.7 5.4 4.0 59 3.5 SSW 26 35 14 19 1022.9 1022.9 0.0
01/11:30am 11.4 5.1 3.7 59 3.5 SSW 26 37 14 20 1023.1 1023.1 0.0
01/11:00am 10.5 3.6 2.8 59 3.3 SSW 28 41 15 22 1023.2 1023.2 0.0
01/10:30am 10.6 4.2 3.4 61 3.2 SSW 26 39 14 21 1023.3 1023.3 0.0
01/10:00am 10.1 3.8 4.0 66 2.7 S 26 37 14 20 1023.4 1023.4 0.0
01/09:30am 9.4 3.6 4.2 70 2.3 SSW 24 32 13 17 1023.4 1023.4 0.0
01/09:00am 8.5 2.6 3.9 73 2.0 SSW 24 33 13 18 1023.2 1023.2 0.8
01/08:30am 7.5 2.4 4.3 80 1.4 SW 20 26 11 14 1022.9 1022.9 0.8
01/08:00am 6.1 2.0 4.1 87 0.9 SW 15 20 8 11 1022.6 1022.6 0.8
01/07:30am 3.8 1.0 2.9 94 0.4 W 7 9 4 5 1022.2 1022.3 0.8
01/07:00am 2.1 -1.4 1.1 93 0.4 W 9 11 5 6 1021.8 1021.9 0.8
01/06:30am 2.4 -1.1 1.5 94 0.4 SW 9 13 5 7 1021.2 1021.3 0.8
01/06:00am 2.4 -0.5 1.4 93 0.4 SW 6 11 3 6 1020.9 1021.0 0.8
01/05:30am 2.5 -1.0 1.5 93 0.4 SW 9 11 5 6 1020.7 1020.8 0.8
01/05:00am 3.1 0.1 1.8 91 0.5 WSW 7 7 4 4 1020.4 1020.5 0.8
01/04:30am 4.2 0.6 2.9 91 0.5 WSW 11 15 6 8 1020.3 1020.4 0.8
01/04:00am 4.5 0.6 3.2 91 0.5 WSW 13 15 7 8 1020.1 1020.2 0.8
01/03:30am 5.1 0.8 3.4 89 0.7 WSW 15 19 8 10 1019.6 1019.7 0.8
01/03:00am 5.7 1.2 4.2 90 0.6 WSW 17 20 9 11 1019.4 1019.5 0.8
01/02:30am 5.6 1.9 4.4 92 0.5 WSW 13 19 7 10 1019.4 1019.5 0.8
01/02:00am 5.6 2.3 4.7 94 0.4 W 11 13 6 7 1019.3 1019.4 0.8
01/01:30am 5.8 2.6 5.1 95 0.3 WSW 11 15 6 8 1019.5 1019.6 0.8
01/01:00am 4.7 1.6 3.7 93 0.4 W 9 11 5 6 1019.6 1019.7 0.8
01/12:30am 5.5 2.2 4.5 93 0.4 WSW 11 13 6 7 1019.4 1019.5 0.8
01/12:00am 6.3 2.0 5.3 93 0.4 W 17 19 9 10 1019.0 1019.2 0.8
 
Date/Time
WST
Temp
°C
App
Temp
°C
Dew
Point
Rel
Hum
%
Delta-T
°C
Wind Press
QNH
hPa
Press
MSL
hPa
Rain
since 9 am
mm
Dir
 
Spd
km/h
Gust
km/h
Spd
kts
Gust
kts
31/11:30pm 7.0 2.8 5.9 93 0.5 WSW 17 20 9 11 1019.0 1019.2 0.8
31/11:00pm 6.3 2.7 4.9 91 0.6 W 13 15 7 8 1018.9 1019.1 0.8
31/10:30pm 7.4 4.4 6.2 92 0.6 W 11 13 6 7 1019.4 1019.5 0.8
31/10:00pm 7.5 4.4 5.6 88 0.9 WSW 11 13 6 7 1019.4 1019.5 0.8
31/09:30pm 8.5 4.0 6.1 85 1.1 WSW 19 22 10 12 1019.1 1019.3 0.8
31/09:00pm 9.3 4.7 6.4 82 1.4 WSW 20 24 11 13 1019.0 1019.2 0.8
31/08:30pm 9.2 5.6 6.8 85 1.1 WSW 15 20 8 11 1018.8 1018.9 0.8
31/08:00pm 9.8 5.4 6.7 81 1.5 WSW 19 24 10 13 1018.4 1018.5 0.8
31/07:30pm 10.5 6.1 7.4 81 1.5 WSW 20 26 11 14 1017.9 1018.0 0.8
31/07:00pm 11.5 7.3 8.2 80 1.6 WSW 20 41 11 22 1017.4 1017.5 0.8
31/06:30pm 11.3 7.3 8.3 82 1.5 WSW 19 24 10 13 1017.0 1017.1 0.8
31/06:00pm 12.3 7.5 9.0 80 1.7 WSW 24 33 13 18 1016.6 1016.7 0.8
31/05:30pm 12.8 8.2 9.6 81 1.6 W 24 33 13 18 1016.3 1016.4 0.8
31/05:00pm 13.5 7.6 10.3 81 1.7 W 32 44 17 24 1016.2 1016.3 0.8
31/04:30pm 13.8 8.5 10.0 78 2.0 W 28 37 15 20 1015.8 1015.9 0.8
31/04:00pm 14.0 9.9 11.3 84 1.4 W 24 35 13 19 1015.8 1015.9 0.8
31/03:30pm 12.9 9.1 9.9 82 1.6 WNW 20 30 11 16 1016.2 1016.3 0.8
31/03:00pm 12.5 8.1 10.4 87 1.1 WNW 24 35 13 19 1016.3 1016.4 0.8
31/02:30pm 14.1 10.4 12.7 91 0.8 WNW 24 32 13 17 1016.3 1016.4 0.4
31/02:00pm 13.8 8.8 10.8 82 1.6 WNW 28 39 15 21 1016.3 1016.4 0.0
31/01:30pm 14.0 10.0 10.4 79 1.9 WNW 22 30 12 16 1016.5 1016.6 0.0
31/01:00pm 14.3 8.9 9.5 73 2.5 NW 28 37 15 20 1016.7 1016.8 0.0
31/12:30pm 15.8 11.2 8.3 61 3.8 NW 22 32 12 17 1016.8 1016.9 0.0
31/12:00pm 15.0 10.1 8.5 65 3.3 WNW 24 35 13 19 1017.6 1017.7 0.0
31/11:30am 14.8 10.5 7.8 63 3.5 NW 20 28 11 15 1018.2 1018.3 0.0
31/11:00am 15.8 11.7 7.8 59 4.0 NNW 19 30 10 16 1018.6 1018.7 0.0
31/10:30am 14.3 10.8 7.1 62 3.6 WNW 15 24 8 13 1019.1 1019.3 0.0
31/10:00am 14.5 10.9 8.2 66 3.2 N 17 26 9 14 1019.5 1019.6 0.0
31/09:30am 13.3 10.8 9.7 79 1.9 N 13 17 7 9 1019.8 1019.9 0.0
31/09:00am 11.7 9.1 9.3 85 1.2 N 13 17 7 9 1020.2 1020.3 0.0
31/08:30am 11.0 9.1 8.9 87 1.1 WNW 9 11 5 6 1020.3 1020.4 0.0
31/08:00am 9.2 7.4 8.1 93 0.5 WNW 7 9 4 5 1020.2 1020.3 0.0
31/07:30am 8.1 6.7 7.2 94 0.4 W 4 6 2 3 1020.0 1020.1 0.0
31/07:00am 7.6 6.5 6.7 94 0.4 WNW 2 6 1 3 1019.8 1019.9 0.0
31/06:30am 6.9 4.8 6.0 94 0.4 W 6 7 3 4 1019.6 1019.7 0.0
31/06:00am 7.2 5.0 6.3 94 0.4 W 7 7 4 4 1019.5 1019.6 0.0
31/05:30am 6.8 5.9 5.9 94 0.4 CALM 0 0 0 0 1019.4 1019.5 0.0
31/05:00am 5.6 3.3 4.6 93 0.4 NNW 6 7 3 4 1019.1 1019.3 0.0
31/04:30am 6.3 3.5 5.1 92 0.5 W 9 11 5 6 1019.3 1019.4 0.0
31/04:00am 7.4 6.2 6.3 93 0.5 WNW 2 6 1 3 1019.3 1019.4 0.0
31/03:30am 7.5 4.9 6.3 92 0.6 NW 9 9 5 5 1019.6 1019.7 0.0
31/03:00am 7.8 6.6 6.6 92 0.6 NNW 2 7 1 4 1019.8 1019.9 0.0
31/02:30am 8.4 7.7 6.9 90 0.7 CALM 0 0 0 0 1019.9 1020.0 0.0
31/02:00am 9.0 8.4 7.5 90 0.7 CALM 0 0 0 0 1020.0 1020.1 0.0
31/01:30am 9.0 7.1 7.5 90 0.7 W 7 7 4 4 1020.3 1020.4 0.0
31/01:00am 9.1 6.9 7.7 91 0.7 WNW 9 13 5 7 1020.6 1020.7 0.0
31/12:30am 8.5 6.1 7.0 90 0.7 WNW 9 9 5 5 1020.6 1020.7 0.0
31/12:00am 9.5 7.7 8.1 91 0.7 W 7 9 4 5 1020.7 1020.8 0.0
 
Date/Time
WST
Temp
°C
App
Temp
°C
Dew
Point
Rel
Hum
%
Delta-T
°C
Wind Press
QNH
hPa
Press
MSL
hPa
Rain
since 9 am
mm
Dir
 
Spd
km/h
Gust
km/h
Spd
kts
Gust
kts
30/11:30pm 9.1 7.2 7.5 90 0.8 W 7 9 4 5 1020.9 1021.0 0.0
30/11:00pm 9.2 7.5 7.5 89 0.8 WNW 6 7 3 4 1021.1 1021.2 0.0
30/10:30pm 10.0 8.2 8.1 88 0.9 W 7 9 4 5 1021.1 1021.2 0.0
30/10:00pm 10.1 7.9 8.0 87 1.0 W 9 11 5 6 1021.2 1021.3 0.0
30/09:30pm 11.1 8.7 8.5 84 1.3 W 11 13 6 7 1021.5 1021.6 0.0
30/09:00pm 11.7 8.9 8.7 82 1.5 W 13 15 7 8 1021.4 1021.5 0.0
30/08:30pm 11.8 9.6 9.2 84 1.3 W 11 13 6 7 1021.3 1021.4 0.0
30/08:00pm 12.2 9.5 8.9 80 1.7 W 13 19 7 10 1021.2 1021.3 0.0
30/07:30pm 12.1 9.9 9.3 83 1.4 WSW 11 11 6 6 1021.0 1021.1 0.0
30/07:00pm 12.9 10.7 9.4 79 1.8 W 11 13 6 7 1020.6 1020.7 0.0
30/06:30pm 13.7 11.0 9.0 73 2.4 WSW 13 15 7 8 1020.5 1020.6 0.0

Other Formats:

Comma delimited format used in spreadsheet applications
http://www.bom.gov.au/fwo/IDW60801/IDW60801.95625.axf

JavaScript Object Notation format (JSON) in row-major order
http://www.bom.gov.au/fwo/IDW60801/IDW60801.95625.json